sensor_id;sensor_type;location;lat;lon;timestamp;pressure;altitude;pressure_sealevel;temperature;humidity
16525;BME280;8375;33.594;-117.718;2023-08-01T00:02:23;100010.28;;;28.23;59.51
16525;BME280;8375;33.594;-117.718;2023-08-01T00:04:51;100013.94;;;28.05;60.65
16525;BME280;8375;33.594;-117.718;2023-08-01T00:07:20;100007.28;;;28.19;60.25
16525;BME280;8375;33.594;-117.718;2023-08-01T00:09:49;100010.78;;;27.79;59.38
16525;BME280;8375;33.594;-117.718;2023-08-01T00:12:19;100000.31;;;27.60;59.79
16525;BME280;8375;33.594;-117.718;2023-08-01T00:14:48;99993.66;;;27.75;58.48
16525;BME280;8375;33.594;-117.718;2023-08-01T00:17:17;99998.16;;;28.03;57.48
16525;BME280;8375;33.594;-117.718;2023-08-01T00:19:46;99988.25;;;28.16;57.21
16525;BME280;8375;33.594;-117.718;2023-08-01T00:22:14;99991.53;;;28.06;57.93
16525;BME280;8375;33.594;-117.718;2023-08-01T00:24:44;99992.72;;;27.98;57.27
16525;BME280;8375;33.594;-117.718;2023-08-01T00:27:14;99998.81;;;27.81;58.81
16525;BME280;8375;33.594;-117.718;2023-08-01T00:29:44;99997.75;;;27.65;60.47
16525;BME280;8375;33.594;-117.718;2023-08-01T00:32:13;100013.22;;;27.16;61.16
16525;BME280;8375;33.594;-117.718;2023-08-01T00:34:43;100016.63;;;26.69;64.26
16525;BME280;8375;33.594;-117.718;2023-08-01T00:37:13;100015.56;;;26.46;65.37
16525;BME280;8375;33.594;-117.718;2023-08-01T00:39:45;100012.72;;;26.29;67.18
16525;BME280;8375;33.594;-117.718;2023-08-01T00:42:15;100015.19;;;26.12;67.66
16525;BME280;8375;33.594;-117.718;2023-08-01T00:44:46;100020.44;;;26.18;68.16
16525;BME280;8375;33.594;-117.718;2023-08-01T00:47:17;100012.00;;;26.21;68.44
16525;BME280;8375;33.594;-117.718;2023-08-01T00:49:47;100003.56;;;26.25;68.83
16525;BME280;8375;33.594;-117.718;2023-08-01T00:52:17;100013.56;;;26.11;69.30
16525;BME280;8375;33.594;-117.718;2023-08-01T00:54:48;100019.59;;;25.87;70.41
16525;BME280;8375;33.594;-117.718;2023-08-01T00:57:17;100019.97;;;25.35;73.02
16525;BME280;8375;33.594;-117.718;2023-08-01T00:59:48;100017.59;;;25.27;74.66
16525;BME280;8375;33.594;-117.718;2023-08-01T01:02:17;100027.50;;;25.38;74.84
16525;BME280;8375;33.594;-117.718;2023-08-01T01:04:47;100024.88;;;25.13;76.20
16525;BME280;8375;33.594;-117.718;2023-08-01T01:07:17;100023.50;;;25.29;75.89
16525;BME280;8375;33.594;-117.718;2023-08-01T01:09:47;100023.28;;;25.49;74.47
16525;BME280;8375;33.594;-117.718;2023-08-01T01:12:16;100026.59;;;25.44;74.17
16525;BME280;8375;33.594;-117.718;2023-08-01T01:14:48;100020.28;;;25.20;76.21
16525;BME280;8375;33.594;-117.718;2023-08-01T01:17:18;100023.00;;;24.95;77.46
16525;BME280;8375;33.594;-117.718;2023-08-01T01:19:47;100030.28;;;24.99;77.02
16525;BME280;8375;33.594;-117.718;2023-08-01T01:22:17;100031.19;;;25.12;76.77
16525;BME280;8375;33.594;-117.718;2023-08-01T01:24:48;100030.91;;;24.76;77.94
16525;BME280;8375;33.594;-117.718;2023-08-01T01:27:17;100025.84;;;24.36;80.21
16525;BME280;8375;33.594;-117.718;2023-08-01T01:29:47;100036.63;;;23.95;82.92
16525;BME280;8375;33.594;-117.718;2023-08-01T01:32:16;100043.56;;;23.96;83.77
16525;BME280;8375;33.594;-117.718;2023-08-01T01:34:45;100040.75;;;23.84;84.41
16525;BME280;8375;33.594;-117.718;2023-08-01T01:37:14;100043.81;;;23.81;84.73
16525;BME280;8375;33.594;-117.718;2023-08-01T01:39:44;100049.34;;;23.66;85.78
16525;BME280;8375;33.594;-117.718;2023-08-01T01:42:13;100045.47;;;23.69;85.98
16525;BME280;8375;33.594;-117.718;2023-08-01T01:44:41;100056.88;;;23.76;85.67
16525;BME280;8375;33.594;-117.718;2023-08-01T01:47:11;100063.25;;;23.48;87.00
16525;BME280;8375;33.594;-117.718;2023-08-01T01:49:39;100062.88;;;23.38;87.95
16525;BME280;8375;33.594;-117.718;2023-08-01T01:52:08;100063.66;;;23.38;87.76
16525;BME280;8375;33.594;-117.718;2023-08-01T01:54:36;100062.03;;;23.37;87.24
16525;BME280;8375;33.594;-117.718;2023-08-01T01:57:07;100062.00;;;23.57;85.50
16525;BME280;8375;33.594;-117.718;2023-08-01T01:59:36;100060.34;;;23.63;84.25
16525;BME280;8375;33.594;-117.718;2023-08-01T02:02:05;100053.88;;;23.52;84.34
16525;BME280;8375;33.594;-117.718;2023-08-01T02:04:34;100054.31;;;23.36;84.16
16525;BME280;8375;33.594;-117.718;2023-08-01T02:07:03;100055.13;;;23.36;83.94
16525;BME280;8375;33.594;-117.718;2023-08-01T02:09:32;100050.22;;;23.53;82.79
16525;BME280;8375;33.594;-117.718;2023-08-01T02:12:00;100055.25;;;23.75;80.86
16525;BME280;8375;33.594;-117.718;2023-08-01T02:14:32;100048.72;;;23.71;79.32
16525;BME280;8375;33.594;-117.718;2023-08-01T02:17:01;100050.56;;;23.70;78.72
16525;BME280;8375;33.594;-117.718;2023-08-01T02:19:30;100050.59;;;23.64;78.00
16525;BME280;8375;33.594;-117.718;2023-08-01T02:21:59;100054.88;;;23.65;77.59
16525;BME280;8375;33.594;-117.718;2023-08-01T02:24:27;100062.63;;;23.59;77.11
16525;BME280;8375;33.594;-117.718;2023-08-01T02:26:56;100066.47;;;23.64;76.48
16525;BME280;8375;33.594;-117.718;2023-08-01T02:29:25;100070.59;;;23.46;77.72
16525;BME280;8375;33.594;-117.718;2023-08-01T02:31:55;100068.78;;;23.40;76.89
16525;BME280;8375;33.594;-117.718;2023-08-01T02:34:24;100075.06;;;23.52;76.67
16525;BME280;8375;33.594;-117.718;2023-08-01T02:36:52;100068.31;;;23.63;76.45
16525;BME280;8375;33.594;-117.718;2023-08-01T02:39:21;100062.22;;;23.63;76.76
16525;BME280;8375;33.594;-117.718;2023-08-01T02:41:50;100066.69;;;23.62;76.58
16525;BME280;8375;33.594;-117.718;2023-08-01T02:44:18;100065.44;;;23.71;76.82
16525;BME280;8375;33.594;-117.718;2023-08-01T02:46:47;100078.03;;;23.83;76.57
16525;BME280;8375;33.594;-117.718;2023-08-01T02:49:18;100084.75;;;23.85;76.09
16525;BME280;8375;33.594;-117.718;2023-08-01T02:51:46;100086.63;;;23.78;76.53
16525;BME280;8375;33.594;-117.718;2023-08-01T02:54:15;100088.09;;;23.61;77.56
16525;BME280;8375;33.594;-117.718;2023-08-01T02:56:44;100094.63;;;23.44;78.21
16525;BME280;8375;33.594;-117.718;2023-08-01T02:59:13;100096.06;;;23.27;78.63
16525;BME280;8375;33.594;-117.718;2023-08-01T03:01:41;100102.97;;;23.14;78.22
16525;BME280;8375;33.594;-117.718;2023-08-01T03:04:10;100101.94;;;23.15;78.23
16525;BME280;8375;33.594;-117.718;2023-08-01T03:06:41;100098.09;;;23.18;76.31
16525;BME280;8375;33.594;-117.718;2023-08-01T03:09:09;100105.59;;;23.14;75.75
16525;BME280;8375;33.594;-117.718;2023-08-01T03:11:38;100097.25;;;23.18;75.53
16525;BME280;8375;33.594;-117.718;2023-08-01T03:14:07;100095.84;;;23.15;75.55
16525;BME280;8375;33.594;-117.718;2023-08-01T03:16:35;100099.28;;;23.15;75.89
16525;BME280;8375;33.594;-117.718;2023-08-01T03:19:04;100102.97;;;23.21;75.29
16525;BME280;8375;33.594;-117.718;2023-08-01T03:21:33;100105.25;;;23.24;75.16
16525;BME280;8375;33.594;-117.718;2023-08-01T03:24:04;100112.16;;;23.25;75.38
16525;BME280;8375;33.594;-117.718;2023-08-01T03:26:35;100108.91;;;23.30;75.36
16525;BME280;8375;33.594;-117.718;2023-08-01T03:29:03;100106.84;;;23.32;75.32
16525;BME280;8375;33.594;-117.718;2023-08-01T03:31:33;100116.44;;;23.40;75.06
16525;BME280;8375;33.594;-117.718;2023-08-01T03:34:02;100125.19;;;23.47;74.82
16525;BME280;8375;33.594;-117.718;2023-08-01T03:36:31;100118.47;;;23.51;75.04
16525;BME280;8375;33.594;-117.718;2023-08-01T03:39:00;100126.41;;;23.58;75.33
16525;BME280;8375;33.594;-117.718;2023-08-01T03:41:31;100115.19;;;23.63;74.55
16525;BME280;8375;33.594;-117.718;2023-08-01T03:44:00;100116.41;;;23.67;74.83
16525;BME280;8375;33.594;-117.718;2023-08-01T03:46:29;100125.56;;;23.71;75.03
16525;BME280;8375;33.594;-117.718;2023-08-01T03:48:58;100130.47;;;23.74;75.08
16525;BME280;8375;33.594;-117.718;2023-08-01T03:51:27;100131.06;;;23.76;75.02
16525;BME280;8375;33.594;-117.718;2023-08-01T03:53:56;100138.22;;;23.69;75.04
16525;BME280;8375;33.594;-117.718;2023-08-01T03:56:25;100140.44;;;23.65;75.79
16525;BME280;8375;33.594;-117.718;2023-08-01T03:58:55;100139.84;;;23.70;76.20
16525;BME280;8375;33.594;-117.718;2023-08-01T04:01:24;100140.25;;;23.67;76.01
16525;BME280;8375;33.594;-117.718;2023-08-01T04:03:53;100141.69;;;23.63;76.79
16525;BME280;8375;33.594;-117.718;2023-08-01T04:06:22;100149.22;;;23.59;76.63
16525;BME280;8375;33.594;-117.718;2023-08-01T04:08:51;100151.66;;;23.40;77.96
16525;BME280;8375;33.594;-117.718;2023-08-01T04:11:19;100163.88;;;23.28;78.94
16525;BME280;8375;33.594;-117.718;2023-08-01T04:13:48;100166.97;;;23.32;79.09
16525;BME280;8375;33.594;-117.718;2023-08-01T04:16:19;100172.88;;;23.34;78.79
16525;BME280;8375;33.594;-117.718;2023-08-01T04:18:47;100171.22;;;23.39;79.31
16525;BME280;8375;33.594;-117.718;2023-08-01T04:21:16;100185.06;;;23.41;78.09
16525;BME280;8375;33.594;-117.718;2023-08-01T04:23:45;100181.63;;;23.41;77.75
16525;BME280;8375;33.594;-117.718;2023-08-01T04:26:14;100184.66;;;23.44;77.94
16525;BME280;8375;33.594;-117.718;2023-08-01T04:28:42;100181.84;;;23.46;77.49
16525;BME280;8375;33.594;-117.718;2023-08-01T04:31:11;100185.91;;;23.49;77.23
16525;BME280;8375;33.594;-117.718;2023-08-01T04:33:42;100184.06;;;23.49;76.93
16525;BME280;8375;33.594;-117.718;2023-08-01T04:36:11;100182.84;;;23.52;79.16
16525;BME280;8375;33.594;-117.718;2023-08-01T04:38:40;100185.09;;;23.48;79.79
16525;BME280;8375;33.594;-117.718;2023-08-01T04:41:09;100185.50;;;23.45;80.25
16525;BME280;8375;33.594;-117.718;2023-08-01T04:43:37;100187.31;;;23.44;80.79
16525;BME280;8375;33.594;-117.718;2023-08-01T04:46:06;100200.16;;;23.41;80.90
16525;BME280;8375;33.594;-117.718;2023-08-01T04:48:35;100203.22;;;23.38;81.12
16525;BME280;8375;33.594;-117.718;2023-08-01T04:51:05;100203.41;;;23.36;81.56
16525;BME280;8375;33.594;-117.718;2023-08-01T04:53:34;100199.75;;;23.37;81.77
16525;BME280;8375;33.594;-117.718;2023-08-01T04:56:02;100202.63;;;23.36;82.37
16525;BME280;8375;33.594;-117.718;2023-08-01T04:58:31;100197.50;;;23.34;82.18
16525;BME280;8375;33.594;-117.718;2023-08-01T05:01:00;100198.53;;;23.33;82.75
16525;BME280;8375;33.594;-117.718;2023-08-01T05:03:29;100195.25;;;23.31;82.74
16525;BME280;8375;33.594;-117.718;2023-08-01T05:05:57;100194.25;;;23.25;82.76
16525;BME280;8375;33.594;-117.718;2023-08-01T05:08:27;100192.63;;;23.24;82.83
16525;BME280;8375;33.594;-117.718;2023-08-01T05:10:56;100196.44;;;23.22;83.48
16525;BME280;8375;33.594;-117.718;2023-08-01T05:13:25;100191.38;;;23.20;83.76
16525;BME280;8375;33.594;-117.718;2023-08-01T05:15:54;100195.63;;;23.21;84.25
16525;BME280;8375;33.594;-117.718;2023-08-01T05:18:23;100196.84;;;23.19;85.46
16525;BME280;8375;33.594;-117.718;2023-08-01T05:20:52;100201.34;;;23.18;85.76
16525;BME280;8375;33.594;-117.718;2023-08-01T05:23:20;100206.22;;;23.14;86.37
16525;BME280;8375;33.594;-117.718;2023-08-01T05:25:51;100212.34;;;23.15;86.67
16525;BME280;8375;33.594;-117.718;2023-08-01T05:28:19;100207.44;;;23.12;86.99
16525;BME280;8375;33.594;-117.718;2023-08-01T05:30:48;100206.41;;;23.13;86.69
16525;BME280;8375;33.594;-117.718;2023-08-01T05:33:17;100205.59;;;23.06;87.30
16525;BME280;8375;33.594;-117.718;2023-08-01T05:35:47;100201.31;;;23.05;87.39
16525;BME280;8375;33.594;-117.718;2023-08-01T05:38:17;100202.72;;;23.07;87.56
16525;BME280;8375;33.594;-117.718;2023-08-01T05:40:45;100191.97;;;23.09;87.79
16525;BME280;8375;33.594;-117.718;2023-08-01T05:43:17;100192.53;;;23.04;87.56
16525;BME280;8375;33.594;-117.718;2023-08-01T05:45:46;100197.63;;;22.99;87.80
16525;BME280;8375;33.594;-117.718;2023-08-01T05:48:15;100200.09;;;23.00;87.88
16525;BME280;8375;33.594;-117.718;2023-08-01T05:50:43;100210.06;;;23.05;87.93
16525;BME280;8375;33.594;-117.718;2023-08-01T05:53:12;100203.13;;;22.97;88.37
16525;BME280;8375;33.594;-117.718;2023-08-01T05:55:41;100207.78;;;22.89;89.04
16525;BME280;8375;33.594;-117.718;2023-08-01T05:58:10;100207.31;;;22.71;90.58
16525;BME280;8375;33.594;-117.718;2023-08-01T06:00:40;100203.63;;;22.59;91.72
16525;BME280;8375;33.594;-117.718;2023-08-01T06:03:09;100209.56;;;22.33;93.63
16525;BME280;8375;33.594;-117.718;2023-08-01T06:05:39;100204.03;;;22.21;94.68
16525;BME280;8375;33.594;-117.718;2023-08-01T06:08:07;100197.72;;;22.22;94.83
16525;BME280;8375;33.594;-117.718;2023-08-01T06:10:36;100194.09;;;22.30;94.00
16525;BME280;8375;33.594;-117.718;2023-08-01T06:13:05;100199.44;;;22.36;93.52
16525;BME280;8375;33.594;-117.718;2023-08-01T06:15:34;100194.00;;;22.45;92.73
16525;BME280;8375;33.594;-117.718;2023-08-01T06:18:05;100197.06;;;22.48;92.80
16525;BME280;8375;33.594;-117.718;2023-08-01T06:20:34;100190.16;;;22.54;92.19
16525;BME280;8375;33.594;-117.718;2023-08-01T06:23:03;100190.75;;;22.49;92.22
16525;BME280;8375;33.594;-117.718;2023-08-01T06:25:31;100195.84;;;22.51;92.28
16525;BME280;8375;33.594;-117.718;2023-08-01T06:28:00;100197.88;;;22.49;92.39
16525;BME280;8375;33.594;-117.718;2023-08-01T06:30:29;100192.38;;;22.50;92.21
16525;BME280;8375;33.594;-117.718;2023-08-01T06:32:58;100198.69;;;22.49;92.27
16525;BME280;8375;33.594;-117.718;2023-08-01T06:35:28;100196.09;;;22.56;92.09
16525;BME280;8375;33.594;-117.718;2023-08-01T06:37:57;100200.53;;;22.55;91.85
16525;BME280;8375;33.594;-117.718;2023-08-01T06:40:25;100195.03;;;22.50;92.14
16525;BME280;8375;33.594;-117.718;2023-08-01T06:42:54;100196.88;;;22.50;92.37
16525;BME280;8375;33.594;-117.718;2023-08-01T06:45:23;100195.84;;;22.51;92.28
16525;BME280;8375;33.594;-117.718;2023-08-01T06:47:52;100191.38;;;22.51;92.61
16525;BME280;8375;33.594;-117.718;2023-08-01T06:50:21;100193.22;;;22.51;92.70
16525;BME280;8375;33.594;-117.718;2023-08-01T06:52:52;100196.25;;;22.54;92.85
16525;BME280;8375;33.594;-117.718;2023-08-01T06:55:21;100190.78;;;22.56;93.06
16525;BME280;8375;33.594;-117.718;2023-08-01T06:57:50;100186.75;;;22.60;92.87
16525;BME280;8375;33.594;-117.718;2023-08-01T07:00:19;100184.66;;;22.55;93.19
16525;BME280;8375;33.594;-117.718;2023-08-01T07:02:48;100187.13;;;22.57;92.96
16525;BME280;8375;33.594;-117.718;2023-08-01T07:05:17;100186.75;;;22.60;92.76
16525;BME280;8375;33.594;-117.718;2023-08-01T07:07:46;100187.75;;;22.59;92.55
16525;BME280;8375;33.594;-117.718;2023-08-01T07:10:16;100195.91;;;22.64;92.58
16525;BME280;8375;33.594;-117.718;2023-08-01T07:12:45;100193.88;;;22.66;92.35
16525;BME280;8375;33.594;-117.718;2023-08-01T07:15:14;100183.69;;;22.63;92.41
16525;BME280;8375;33.594;-117.718;2023-08-01T07:17:43;100196.53;;;22.66;92.20
16525;BME280;8375;33.594;-117.718;2023-08-01T07:20:12;100195.50;;;22.67;92.27
16525;BME280;8375;33.594;-117.718;2023-08-01T07:22:41;100193.88;;;22.66;92.28
16525;BME280;8375;33.594;-117.718;2023-08-01T07:25:11;100190.81;;;22.63;92.72
16525;BME280;8375;33.594;-117.718;2023-08-01T07:27:41;100189.78;;;22.64;92.65
16525;BME280;8375;33.594;-117.718;2023-08-01T07:30:11;100188.38;;;22.61;92.76
16525;BME280;8375;33.594;-117.718;2023-08-01T07:32:39;100185.50;;;22.63;92.98
16525;BME280;8375;33.594;-117.718;2023-08-01T07:35:10;100177.97;;;22.53;93.38
16525;BME280;8375;33.594;-117.718;2023-08-01T07:37:39;100185.69;;;22.54;93.50
16525;BME280;8375;33.594;-117.718;2023-08-01T07:40:12;100184.88;;;22.54;93.41
16525;BME280;8375;33.594;-117.718;2023-08-01T07:42:43;100184.06;;;22.53;93.69
16525;BME280;8375;33.594;-117.718;2023-08-01T07:45:12;100184.88;;;22.54;93.62
16525;BME280;8375;33.594;-117.718;2023-08-01T07:47:41;100192.19;;;22.52;93.88
16525;BME280;8375;33.594;-117.718;2023-08-01T07:50:11;100193.78;;;22.46;94.20
16525;BME280;8375;33.594;-117.718;2023-08-01T07:52:40;100187.69;;;22.46;94.73
16525;BME280;8375;33.594;-117.718;2023-08-01T07:55:08;100189.69;;;22.44;95.00
16525;BME280;8375;33.594;-117.718;2023-08-01T07:57:37;100191.28;;;22.38;95.25
16525;BME280;8375;33.594;-117.718;2023-08-01T08:00:09;100188.63;;;22.31;95.88
16525;BME280;8375;33.594;-117.718;2023-08-01T08:02:38;100184.72;;;22.27;96.20
16525;BME280;8375;33.594;-117.718;2023-08-01T08:05:07;100184.69;;;22.20;97.08
16525;BME280;8375;33.594;-117.718;2023-08-01T08:07:37;100185.34;;;22.29;96.52
16525;BME280;8375;33.594;-117.718;2023-08-01T08:10:07;100189.63;;;22.30;96.61
16525;BME280;8375;33.594;-117.718;2023-08-01T08:12:35;100186.16;;;22.30;96.75
16525;BME280;8375;33.594;-117.718;2023-08-01T08:15:05;100189.25;;;22.33;96.81
16525;BME280;8375;33.594;-117.718;2023-08-01T08:17:35;100185.34;;;22.29;96.66
16525;BME280;8375;33.594;-117.718;2023-08-01T08:20:05;100180.28;;;22.34;96.50
16525;BME280;8375;33.594;-117.718;2023-08-01T08:22:34;100183.94;;;22.33;96.05
16525;BME280;8375;33.594;-117.718;2023-08-01T08:25:04;100179.06;;;22.30;96.46
16525;BME280;8375;33.594;-117.718;2023-08-01T08:27:33;100180.06;;;22.29;96.35
16525;BME280;8375;33.594;-117.718;2023-08-01T08:30:03;100179.44;;;22.27;96.60
16525;BME280;8375;33.594;-117.718;2023-08-01T08:32:34;100183.09;;;22.26;97.06
16525;BME280;8375;33.594;-117.718;2023-08-01T08:35:04;100189.00;;;22.28;97.12
16525;BME280;8375;33.594;-117.718;2023-08-01T08:37:33;100181.69;;;22.30;96.87
16525;BME280;8375;33.594;-117.718;2023-08-01T08:40:04;100180.28;;;22.34;97.07
16525;BME280;8375;33.594;-117.718;2023-08-01T08:42:34;100174.56;;;22.31;97.10
16525;BME280;8375;33.594;-117.718;2023-08-01T08:45:05;100185.97;;;22.31;96.94
16525;BME280;8375;33.594;-117.718;2023-08-01T08:47:38;100185.59;;;22.34;97.08
16525;BME280;8375;33.594;-117.718;2023-08-01T08:50:09;100181.94;;;22.35;97.12
16525;BME280;8375;33.594;-117.718;2023-08-01T08:52:39;100190.66;;;22.36;96.76
16525;BME280;8375;33.594;-117.718;2023-08-01T08:55:08;100187.22;;;22.35;97.03
16525;BME280;8375;33.594;-117.718;2023-08-01T08:57:37;100180.69;;;22.38;96.86
16525;BME280;8375;33.594;-117.718;2023-08-01T09:00:07;100186.38;;;22.35;96.87
16525;BME280;8375;33.594;-117.718;2023-08-01T09:02:38;100180.28;;;22.34;96.50
16525;BME280;8375;33.594;-117.718;2023-08-01T09:05:07;100181.94;;;22.35;97.15
16525;BME280;8375;33.594;-117.718;2023-08-01T09:07:43;100183.56;;;22.36;96.85
16525;BME280;8375;33.594;-117.718;2023-08-01T09:10:14;100176.63;;;22.35;96.56
16525;BME280;8375;33.594;-117.718;2023-08-01T09:12:43;100175.00;;;22.34;96.51
16525;BME280;8375;33.594;-117.718;2023-08-01T09:15:13;100169.72;;;22.34;96.43
16525;BME280;8375;33.594;-117.718;2023-08-01T09:17:51;100167.88;;;22.35;96.72
16525;BME280;8375;33.594;-117.718;2023-08-01T09:20:20;100167.69;;;22.36;96.37
16525;BME280;8375;33.594;-117.718;2023-08-01T09:22:48;100164.81;;;22.31;96.47
16525;BME280;8375;33.594;-117.718;2023-08-01T09:25:17;100162.78;;;22.33;96.56
16525;BME280;8375;33.594;-117.718;2023-08-01T09:27:45;100171.34;;;22.35;96.76
16525;BME280;8375;33.594;-117.718;2023-08-01T09:30:15;100166.06;;;22.35;96.88
16525;BME280;8375;33.594;-117.718;2023-08-01T09:32:53;100173.38;;;22.33;96.86
16525;BME280;8375;33.594;-117.718;2023-08-01T09:35:22;100168.88;;;22.34;96.78
16525;BME280;8375;33.594;-117.718;2023-08-01T09:37:51;100174.38;;;22.32;96.70
16525;BME280;8375;33.594;-117.718;2023-08-01T09:40:20;100179.66;;;22.32;96.77
16525;BME280;8375;33.594;-117.718;2023-08-01T09:42:49;100177.03;;;22.32;96.79
16525;BME280;8375;33.594;-117.718;2023-08-01T09:45:18;100174.56;;;22.31;96.77
16525;BME280;8375;33.594;-117.718;2023-08-01T09:47:46;100173.38;;;22.33;96.62
16525;BME280;8375;33.594;-117.718;2023-08-01T09:50:22;100177.03;;;22.32;96.64
16525;BME280;8375;33.594;-117.718;2023-08-01T09:52:51;100174.38;;;22.32;96.45
16525;BME280;8375;33.594;-117.718;2023-08-01T09:55:23;100168.28;;;22.32;96.24
16525;BME280;8375;33.594;-117.718;2023-08-01T09:57:57;100166.44;;;22.32;96.39
16525;BME280;8375;33.594;-117.718;2023-08-01T10:00:27;100173.38;;;22.33;96.75
16525;BME280;8375;33.594;-117.718;2023-08-01T10:02:57;100168.88;;;22.34;96.88
16525;BME280;8375;33.594;-117.718;2023-08-01T10:05:31;100159.94;;;22.35;96.63
16525;BME280;8375;33.594;-117.718;2023-08-01T10:08:01;100159.13;;;22.34;96.84
16525;BME280;8375;33.594;-117.718;2023-08-01T10:10:30;100154.66;;;22.35;96.56
16525;BME280;8375;33.594;-117.718;2023-08-01T10:13:01;100146.16;;;22.39;96.12
16525;BME280;8375;33.594;-117.718;2023-08-01T10:15:30;100144.91;;;22.35;96.35
16525;BME280;8375;33.594;-117.718;2023-08-01T10:17:59;100151.38;;;22.33;96.71
16525;BME280;8375;33.594;-117.718;2023-08-01T10:20:30;100146.94;;;22.33;96.29
16525;BME280;8375;33.594;-117.718;2023-08-01T10:22:59;100147.31;;;22.30;96.61
16525;BME280;8375;33.594;-117.718;2023-08-01T10:25:29;100151.38;;;22.33;97.04
16525;BME280;8375;33.594;-117.718;2023-08-01T10:27:59;100150.16;;;22.28;97.12
16525;BME280;8375;33.594;-117.718;2023-08-01T10:30:29;100160.31;;;22.25;97.33
16525;BME280;8375;33.594;-117.718;2023-08-01T10:32:59;100156.66;;;22.26;96.94
16525;BME280;8375;33.594;-117.718;2023-08-01T10:35:36;100154.88;;;22.33;96.90
16525;BME280;8375;33.594;-117.718;2023-08-01T10:38:07;100153.81;;;22.27;97.17
16525;BME280;8375;33.594;-117.718;2023-08-01T10:40:37;100150.97;;;22.29;97.55
16525;BME280;8375;33.594;-117.718;2023-08-01T10:43:06;100162.56;;;22.28;97.46
16525;BME280;8375;33.594;-117.718;2023-08-01T10:45:34;100167.03;;;22.27;97.85
16525;BME280;8375;33.594;-117.718;2023-08-01T10:48:10;100164.38;;;22.27;97.90
16525;BME280;8375;33.594;-117.718;2023-08-01T10:50:40;100157.28;;;22.28;97.94
16525;BME280;8375;33.594;-117.718;2023-08-01T10:53:10;100157.91;;;22.30;98.97
16525;BME280;8375;33.594;-117.718;2023-08-01T10:55:42;100158.53;;;22.32;100.00
16525;BME280;8375;33.594;-117.718;2023-08-01T10:58:11;100153.41;;;22.31;100.00
16525;BME280;8375;33.594;-117.718;2023-08-01T11:00:41;100154.63;;;22.28;100.00
16525;BME280;8375;33.594;-117.718;2023-08-01T11:03:09;100159.94;;;22.28;99.69
16525;BME280;8375;33.594;-117.718;2023-08-01T11:05:40;100159.94;;;22.28;99.31
16525;BME280;8375;33.594;-117.718;2023-08-01T11:08:08;100166.22;;;22.27;99.48
16525;BME280;8375;33.594;-117.718;2023-08-01T11:10:38;100166.00;;;22.28;99.08
16525;BME280;8375;33.594;-117.718;2023-08-01T11:13:12;100171.31;;;22.28;98.81
16525;BME280;8375;33.594;-117.718;2023-08-01T11:15:40;100179.44;;;22.27;98.64
16525;BME280;8375;33.594;-117.718;2023-08-01T11:18:09;100181.25;;;22.26;98.14
16525;BME280;8375;33.594;-117.718;2023-08-01T11:20:40;100183.72;;;22.28;98.30
16525;BME280;8375;33.594;-117.718;2023-08-01T11:23:09;100191.44;;;22.30;98.06
16525;BME280;8375;33.594;-117.718;2023-08-01T11:25:39;100188.78;;;22.23;97.81
16525;BME280;8375;33.594;-117.718;2023-08-01T11:28:10;100198.09;;;22.19;98.07
16525;BME280;8375;33.594;-117.718;2023-08-01T11:30:39;100198.28;;;22.17;98.30
16525;BME280;8375;33.594;-117.718;2023-08-01T11:33:17;100193.00;;;22.17;98.17
16525;BME280;8375;33.594;-117.718;2023-08-01T11:35:50;100197.28;;;22.18;98.30
16525;BME280;8375;33.594;-117.718;2023-08-01T11:38:20;100202.38;;;22.20;98.57
16525;BME280;8375;33.594;-117.718;2023-08-01T11:40:51;100205.66;;;22.22;98.33
16525;BME280;8375;33.594;-117.718;2023-08-01T11:43:20;100208.06;;;22.17;98.93
16525;BME280;8375;33.594;-117.718;2023-08-01T11:45:49;100211.50;;;22.17;98.74
16525;BME280;8375;33.594;-117.718;2023-08-01T11:48:18;100203.56;;;22.10;99.06
16525;BME280;8375;33.594;-117.718;2023-08-01T11:50:48;100215.94;;;22.10;98.92
16525;BME280;8375;33.594;-117.718;2023-08-01T11:53:21;100202.72;;;22.10;99.18
16525;BME280;8375;33.594;-117.718;2023-08-01T11:55:50;100210.66;;;22.10;99.02
16525;BME280;8375;33.594;-117.718;2023-08-01T11:58:28;100217.56;;;22.11;99.07
16525;BME280;8375;33.594;-117.718;2023-08-01T12:01:05;100226.34;;;22.11;99.42
16525;BME280;8375;33.594;-117.718;2023-08-01T12:03:43;100221.03;;;22.11;99.32
16525;BME280;8375;33.594;-117.718;2023-08-01T12:06:14;100224.50;;;22.12;98.78
16525;BME280;8375;33.594;-117.718;2023-08-01T12:08:43;100229.16;;;22.10;98.47
16525;BME280;8375;33.594;-117.718;2023-08-01T12:11:20;100223.69;;;22.11;98.84
16525;BME280;8375;33.594;-117.718;2023-08-01T12:14:00;100241.19;;;22.12;98.60
16525;BME280;8375;33.594;-117.718;2023-08-01T12:16:29;100233.63;;;22.09;98.89
16525;BME280;8375;33.594;-117.718;2023-08-01T12:18:58;100235.66;;;22.07;98.94
16525;BME280;8375;33.594;-117.718;2023-08-01T12:21:28;100228.44;;;21.94;100.00
16525;BME280;8375;33.594;-117.718;2023-08-01T12:23:57;100238.09;;;21.80;100.00
16525;BME280;8375;33.594;-117.718;2023-08-01T12:26:26;100239.50;;;21.76;100.00
16525;BME280;8375;33.594;-117.718;2023-08-01T12:28:55;100243.53;;;21.72;100.00
16525;BME280;8375;33.594;-117.718;2023-08-01T12:31:24;100246.94;;;21.66;100.00
16525;BME280;8375;33.594;-117.718;2023-08-01T12:33:52;100246.56;;;21.69;100.00
16525;BME280;8375;33.594;-117.718;2023-08-01T12:36:21;100253.09;;;21.73;100.00
16525;BME280;8375;33.594;-117.718;2023-08-01T12:38:51;100249.06;;;21.77;100.00
16525;BME280;8375;33.594;-117.718;2023-08-01T12:41:20;100253.75;;;21.82;100.00
16525;BME280;8375;33.594;-117.718;2023-08-01T12:43:49;100255.22;;;21.85;100.00